• Join FlightAware (Why Join?)
  • Login
  • US Flag 
09:45PM EDT


 

Airport Tracker/Info


-or-


 

Live Flight TrackerFlight Track Log ✈ RPA3436 ✈ 03-Jul-2013 ✈ KDCA - KALB

Flight Track Log - Related Links

Times and Time Zones

All times are in EDT time to prevent confusion due to time zone crossing. See the RPA3436 flight status page for this flight to view local times or setup timezone preferences in your user account.

Time Position Orientation Groundspeed Altitude Reporting Facility
EDT Latitude Longitude Course Direction KTS MPH feet Rate Location/Type
10:16AM 38.9164 -77.1044 57° Northeast 179 206 2,800  Level Washington Center
10:17AM 38.9678 -77.1589 321° Northwest 211 243 5,900 2,820 Climbing Washington Center
10:18AM 39.0099 -76.5802 57° Northeast  Level FlightAware Approximate
10:18AM 39.0364 -77.1844 344° North 243 280 8,600  Level Washington Center
10:19AM 39.0536 -76.4659 63° Northeast  Level FlightAware Approximate
10:19AM 39.0625 -77.0833 72° East 185 213 11,400  Level Washington Center
10:20AM 39.1008 -76.3536 61° Northeast  Level FlightAware Approximate
10:20AM 39.0744 -76.9714 82° East 234 269 14,000  Level Washington Center
10:21AM 39.1316 -76.2368 57° Northeast  Level FlightAware Approximate
10:21AM 39.0861 -76.8431 83° East 298 343 15,600  Level Washington Center
10:22AM 39.1019 -76.7097 81° East 343 395 18,000 1,980 Climbing Washington Center
10:23AM 39.1158 -76.5733 82° East 372 428 19,700 1,740 Climbing Washington Center
10:24AM 39.1292 -76.4317 83° East 385 443 21,600 1,620 Climbing Washington Center
10:25AM 39.1428 -76.2875 83° East 397 457 23,000 660 Climbing Washington Center
10:26AM 39.1622 -76.1378 80° East 408 470 23,000  Level Washington Center
10:27AM 39.1817 -75.9958 80° East 408 470 23,000  Level Washington Center
10:28AM 39.2131 -75.8514 74° East 408 470 23,100 720 Climbing Washington Center
10:29AM 39.2989 -75.7417 45° Northeast 412 474 24,500 1,380 Climbing Washington Center
10:30AM 39.3844 -75.6292 45° Northeast 418 481 25,900 1,260 Climbing Washington Center
10:31AM 39.4739 -75.5136 45° Northeast 430 495 27,000 360 Climbing Washington Center
10:33AM 39.6342 -75.3103 44° Northeast 445 512 27,000  Level New York Center
10:34AM 39.7181 -75.1917 47° Northeast 440 506 27,000  Level New York Center
10:35AM 39.8017 -75.0697 48° Northeast 445 512 27,000  Level New York Center
10:36AM 39.8853 -74.9506 48° Northeast 445 512 27,000  Level New York Center
10:37AM 39.9775 -74.8153 48° Northeast 450 518 27,000  Level New York Center
10:38AM 40.0519 -74.7111 47° Northeast 450 518 27,000  Level New York Center
10:39AM 40.1461 -74.5753 48° Northeast 450 518 27,000  Level New York Center
10:40AM 40.2350 -74.4606 45° Northeast 450 518 27,000  Level New York Center
10:41AM 40.3300 -74.3567 40° Northeast 450 518 27,000  Level New York Center
10:43AM 40.5392 -74.1331 39° Northeast 443 510 27,000  Level Boston Center
10:44AM 40.6367 -74.0292 39° Northeast 443 510 27,000 -1,020 Level Boston Center
10:45AM 40.7317 -73.9244 40° Northeast 443 510 25,000 -1,500 Descending Boston Center
10:46AM 40.8311 -73.8144 40° Northeast 426 490 24,000 -780 Descending Boston Center
10:47AM 40.9156 -73.7308 37° Northeast 420 483 23,500 -540 Descending Boston Center
10:48AM 41.0289 -73.6481 29° Northeast 420 483 23,000 -300 Descending Boston Center
10:49AM 41.1233 -73.5781 29° Northeast 420 483 22,900 -600 Descending Boston Center
10:50AM 41.2325 -73.4972 29° Northeast 420 483 21,800 -1,380 Descending Boston Center
10:51AM 41.3639 -73.4856 North 388 447 19,900 -1,500 Descending Boston Center
10:52AM 41.4703 -73.4872 359° North 383 441 18,500 -1,380 Descending Boston Center
10:53AM 41.5722 -73.4944 357° North 377 434 17,200 -1,380 Descending Boston Center
10:54AM 41.6597 -73.5014 357° North 358 412 15,800 -1,500 Descending Boston Center
10:55AM 41.7619 -73.5061 358° North 345 397 14,300 -1,380 Descending Boston Center
10:56AM 41.8472 -73.5131 357° North 340 391 13,100 -1,260 Descending Boston Center
10:57AM 41.9492 -73.5175 358° North 335 386 11,800 -1,140 Descending Boston Center
10:58AM 42.0264 -73.5217 358° North 331 381 11,100 -420 Descending Boston Center
10:59AM 42.1222 -73.5261 358° North 330 380 11,000 -120 Descending Boston Center
11:00AM 42.2117 -73.5361 355° North 325 374 10,900 -780 Descending Boston Center
11:01AM 42.3156 -73.5631 349° North 299 344 9,400 -1,560 Descending Boston Center
11:02AM 42.4031 -73.5872 348° North 294 338 7,600 -1,740 Descending Boston Center
11:03AM 42.4797 -73.6083 349° North 288 331 5,900 -1,620 Descending Boston Center
11:04AM 42.5547 -73.6294 348° North 276 318 4,400 -1,260 Descending Boston Center
11:05AM 42.6253 -73.6619 341° North 267 307 3,400 -1,020 Descending Boston Center